sensor_id;sensor_type;location;lat;lon;timestamp;pressure;altitude;pressure_sealevel;temperature;humidity
54876;BME280;40764;48.472;8.166;2023-02-04T00:05:05;99636.38;;;6.42;100.00
54876;BME280;40764;48.472;8.166;2023-02-04T00:11:05;99632.59;;;6.43;100.00
54876;BME280;40764;48.472;8.166;2023-02-04T00:17:05;99629.41;;;6.46;100.00
54876;BME280;40764;48.472;8.166;2023-02-04T00:23:12;99640.25;;;6.35;100.00
54876;BME280;40764;48.472;8.166;2023-02-04T00:29:12;99632.25;;;6.40;100.00
54876;BME280;40764;48.472;8.166;2023-02-04T00:35:13;99643.13;;;6.51;100.00
54876;BME280;40764;48.472;8.166;2023-02-04T00:41:14;99638.97;;;6.49;100.00
54876;BME280;40764;48.472;8.166;2023-02-04T00:47:14;99628.00;;;6.56;100.00
54876;BME280;40764;48.472;8.166;2023-02-04T00:53:15;99628.34;;;6.59;100.00
54876;BME280;40764;48.472;8.166;2023-02-04T00:59:15;99629.53;;;6.51;100.00
54876;BME280;40764;48.472;8.166;2023-02-04T01:05:15;99635.91;;;6.45;100.00
54876;BME280;40764;48.472;8.166;2023-02-04T01:11:16;99644.78;;;6.41;100.00
54876;BME280;40764;48.472;8.166;2023-02-04T01:17:17;99649.22;;;6.35;100.00
54876;BME280;40764;48.472;8.166;2023-02-04T01:23:18;99643.72;;;6.42;100.00
54876;BME280;40764;48.472;8.166;2023-02-04T01:29:18;99639.09;;;6.42;100.00
54876;BME280;40764;48.472;8.166;2023-02-04T01:35:18;99642.53;;;6.38;100.00
54876;BME280;40764;48.472;8.166;2023-02-04T01:41:19;99643.78;;;6.35;100.00
54876;BME280;40764;48.472;8.166;2023-02-04T01:47:19;99648.84;;;6.32;100.00
54876;BME280;40764;48.472;8.166;2023-02-04T01:53:22;99642.75;;;6.36;100.00
54876;BME280;40764;48.472;8.166;2023-02-04T01:59:23;99634.13;;;6.39;100.00
54876;BME280;40764;48.472;8.166;2023-02-04T02:05:27;99631.50;;;6.33;100.00
54876;BME280;40764;48.472;8.166;2023-02-04T02:11:30;99630.94;;;6.42;100.00
54876;BME280;40764;48.472;8.166;2023-02-04T02:17:31;99628.25;;;6.42;100.00
54876;BME280;40764;48.472;8.166;2023-02-04T02:24:22;99624.56;;;6.37;100.00
54876;BME280;40764;48.472;8.166;2023-02-04T02:30:23;99623.94;;;6.23;100.00
54876;BME280;40764;48.472;8.166;2023-02-04T02:36:24;99635.97;;;6.27;100.00
54876;BME280;40764;48.472;8.166;2023-02-04T02:42:24;99620.03;;;6.31;100.00
54876;BME280;40764;48.472;8.166;2023-02-04T02:48:25;99633.97;;;6.22;100.00
54876;BME280;40764;48.472;8.166;2023-02-04T02:54:29;99628.56;;;6.34;100.00
54876;BME280;40764;48.472;8.166;2023-02-04T03:00:29;99629.41;;;6.58;100.00
54876;BME280;40764;48.472;8.166;2023-02-04T03:06:30;99635.00;;;6.75;100.00
54876;BME280;40764;48.472;8.166;2023-02-04T03:12:30;99620.56;;;6.51;100.00
54876;BME280;40764;48.472;8.166;2023-02-04T03:18:31;99630.59;;;6.50;100.00
54876;BME280;40764;48.472;8.166;2023-02-04T03:24:31;99637.34;;;6.48;100.00
54876;BME280;40764;48.472;8.166;2023-02-04T03:30:32;99636.84;;;6.51;100.00
54876;BME280;40764;48.472;8.166;2023-02-04T03:36:32;99622.91;;;6.59;100.00
54876;BME280;40764;48.472;8.166;2023-02-04T03:42:32;99629.69;;;6.68;100.00
54876;BME280;40764;48.472;8.166;2023-02-04T03:48:33;99636.50;;;6.59;100.00
54876;BME280;40764;48.472;8.166;2023-02-04T03:54:34;99646.53;;;6.47;100.00
54876;BME280;40764;48.472;8.166;2023-02-04T04:00:34;99642.88;;;6.53;100.00
54876;BME280;40764;48.472;8.166;2023-02-04T04:06:34;99646.78;;;6.57;100.00
54876;BME280;40764;48.472;8.166;2023-02-04T04:12:35;99647.72;;;6.63;100.00
54876;BME280;40764;48.472;8.166;2023-02-04T04:18:35;99653.63;;;6.60;100.00
54876;BME280;40764;48.472;8.166;2023-02-04T04:24:35;99650.09;;;6.59;100.00
54876;BME280;40764;48.472;8.166;2023-02-04T04:30:36;99646.22;;;6.67;100.00
54876;BME280;40764;48.472;8.166;2023-02-04T04:36:36;99650.31;;;6.46;100.00
54876;BME280;40764;48.472;8.166;2023-02-04T04:42:36;99668.63;;;6.62;100.00
54876;BME280;40764;48.472;8.166;2023-02-04T04:48:37;99660.47;;;6.50;100.00
54876;BME280;40764;48.472;8.166;2023-02-04T04:54:37;99672.56;;;6.66;100.00
54876;BME280;40764;48.472;8.166;2023-02-04T05:00:37;99682.50;;;6.72;100.00
54876;BME280;40764;48.472;8.166;2023-02-04T05:06:38;99676.56;;;6.52;100.00
54876;BME280;40764;48.472;8.166;2023-02-04T05:12:38;99677.13;;;6.42;100.00
54876;BME280;40764;48.472;8.166;2023-02-04T05:18:39;99687.06;;;6.48;100.00
54876;BME280;40764;48.472;8.166;2023-02-04T05:24:39;99693.09;;;6.62;100.00
54876;BME280;40764;48.472;8.166;2023-02-04T05:30:39;99690.66;;;6.84;100.00
54876;BME280;40764;48.472;8.166;2023-02-04T05:36:40;99691.25;;;6.86;100.00
54876;BME280;40764;48.472;8.166;2023-02-04T05:42:40;99689.13;;;6.76;100.00
54876;BME280;40764;48.472;8.166;2023-02-04T05:48:41;99690.53;;;6.79;100.00
54876;BME280;40764;48.472;8.166;2023-02-04T05:54:41;99697.84;;;6.67;100.00
54876;BME280;40764;48.472;8.166;2023-02-04T06:00:41;99708.63;;;6.73;100.00
54876;BME280;40764;48.472;8.166;2023-02-04T06:06:42;99721.38;;;6.73;100.00
54876;BME280;40764;48.472;8.166;2023-02-04T06:12:42;99722.66;;;6.70;100.00
54876;BME280;40764;48.472;8.166;2023-02-04T06:18:43;99729.19;;;6.81;100.00
54876;BME280;40764;48.472;8.166;2023-02-04T06:24:43;99745.72;;;6.68;100.00
54876;BME280;40764;48.472;8.166;2023-02-04T06:30:43;99749.84;;;6.70;100.00
54876;BME280;40764;48.472;8.166;2023-02-04T06:36:44;99750.00;;;6.87;100.00
54876;BME280;40764;48.472;8.166;2023-02-04T06:42:44;99755.59;;;7.04;100.00
54876;BME280;40764;48.472;8.166;2023-02-04T06:48:44;99760.66;;;7.00;100.00
54876;BME280;40764;48.472;8.166;2023-02-04T06:54:45;99764.56;;;7.04;100.00
54876;BME280;40764;48.472;8.166;2023-02-04T07:00:45;99769.97;;;6.93;100.00
54876;BME280;40764;48.472;8.166;2023-02-04T07:06:45;99774.19;;;6.77;100.00
54876;BME280;40764;48.472;8.166;2023-02-04T07:12:46;99798.78;;;6.82;100.00
54876;BME280;40764;48.472;8.166;2023-02-04T07:18:46;99795.13;;;6.76;100.00
54876;BME280;40764;48.472;8.166;2023-02-04T07:24:46;99816.38;;;6.68;100.00
54876;BME280;40764;48.472;8.166;2023-02-04T07:30:47;99833.97;;;6.65;100.00
54876;BME280;40764;48.472;8.166;2023-02-04T07:36:47;99821.13;;;6.84;100.00
54876;BME280;40764;48.472;8.166;2023-02-04T07:42:47;99836.66;;;6.95;100.00
54876;BME280;40764;48.472;8.166;2023-02-04T07:48:49;99844.06;;;6.88;100.00
54876;BME280;40764;48.472;8.166;2023-02-04T07:54:49;99840.53;;;6.88;100.00
54876;BME280;40764;48.472;8.166;2023-02-04T08:00:51;99840.94;;;7.03;100.00
54876;BME280;40764;48.472;8.166;2023-02-04T08:06:51;99841.34;;;6.88;100.00
54876;BME280;40764;48.472;8.166;2023-02-04T08:12:51;99844.28;;;6.75;100.00
54876;BME280;40764;48.472;8.166;2023-02-04T08:18:52;99844.25;;;7.05;100.00
54876;BME280;40764;48.472;8.166;2023-02-04T08:24:52;99853.13;;;7.12;100.00
54876;BME280;40764;48.472;8.166;2023-02-04T08:30:52;99865.50;;;6.96;100.00
54876;BME280;40764;48.472;8.166;2023-02-04T08:36:53;99862.31;;;6.99;100.00
54876;BME280;40764;48.472;8.166;2023-02-04T08:42:53;99872.91;;;6.89;100.00
54876;BME280;40764;48.472;8.166;2023-02-04T08:48:53;99881.88;;;6.60;100.00
54876;BME280;40764;48.472;8.166;2023-02-04T08:54:54;99892.03;;;6.82;100.00
54876;BME280;40764;48.472;8.166;2023-02-04T09:00:54;99899.25;;;6.89;100.00
54876;BME280;40764;48.472;8.166;2023-02-04T09:06:54;99902.97;;;6.94;100.00
54876;BME280;40764;48.472;8.166;2023-02-04T09:12:55;99905.22;;;6.97;100.00
54876;BME280;40764;48.472;8.166;2023-02-04T09:18:55;99927.97;;;7.14;100.00
54876;BME280;40764;48.472;8.166;2023-02-04T09:24:57;99924.63;;;7.42;100.00
54876;BME280;40764;48.472;8.166;2023-02-04T09:30:57;99928.63;;;7.28;100.00
54876;BME280;40764;48.472;8.166;2023-02-04T09:36:59;99929.09;;;7.25;100.00
54876;BME280;40764;48.472;8.166;2023-02-04T09:43:00;99930.31;;;7.41;100.00
54876;BME280;40764;48.472;8.166;2023-02-04T09:49:01;99938.06;;;7.79;100.00
54876;BME280;40764;48.472;8.166;2023-02-04T09:55:08;99930.72;;;7.68;100.00
54876;BME280;40764;48.472;8.166;2023-02-04T10:01:16;99929.44;;;7.94;100.00
54876;BME280;40764;48.472;8.166;2023-02-04T10:07:18;99930.28;;;7.94;96.72
54876;BME280;40764;48.472;8.166;2023-02-04T10:13:35;99942.59;;;7.97;95.61
54876;BME280;40764;48.472;8.166;2023-02-04T10:19:36;99939.75;;;8.27;92.62
54876;BME280;40764;48.472;8.166;2023-02-04T10:25:37;99949.00;;;8.49;92.52
54876;BME280;40764;48.472;8.166;2023-02-04T10:31:40;99933.31;;;8.56;87.72
54876;BME280;40764;48.472;8.166;2023-02-04T10:37:40;99934.16;;;8.57;89.52
54876;BME280;40764;48.472;8.166;2023-02-04T10:43:41;99931.75;;;8.72;87.80
54876;BME280;40764;48.472;8.166;2023-02-04T10:49:51;99936.69;;;8.47;88.60
54876;BME280;40764;48.472;8.166;2023-02-04T10:55:52;99933.31;;;8.56;88.02
54876;BME280;40764;48.472;8.166;2023-02-04T11:01:57;99932.38;;;8.62;86.04
54876;BME280;40764;48.472;8.166;2023-02-04T11:07:59;99947.34;;;8.88;82.38
54876;BME280;40764;48.472;8.166;2023-02-04T11:14:01;99938.63;;;8.63;79.69
54876;BME280;40764;48.472;8.166;2023-02-04T11:20:29;99936.16;;;8.61;79.71
54876;BME280;40764;48.472;8.166;2023-02-04T11:32:39;99930.50;;;8.51;74.53
54876;BME280;40764;48.472;8.166;2023-02-04T11:38:48;99934.88;;;8.92;70.57
54876;BME280;40764;48.472;8.166;2023-02-04T11:44:59;99941.38;;;9.03;68.11
54876;BME280;40764;48.472;8.166;2023-02-04T11:51:02;99939.91;;;9.12;73.31
54876;BME280;40764;48.472;8.166;2023-02-04T11:57:03;99940.81;;;9.29;71.05
54876;BME280;40764;48.472;8.166;2023-02-04T12:03:05;99948.53;;;9.21;72.97
54876;BME280;40764;48.472;8.166;2023-02-04T12:09:24;99932.22;;;9.09;70.06
54876;BME280;40764;48.472;8.166;2023-02-04T12:15:33;99937.03;;;9.19;69.36
54876;BME280;40764;48.472;8.166;2023-02-04T12:21:36;99936.19;;;8.90;71.42
54876;BME280;40764;48.472;8.166;2023-02-04T12:27:36;99935.22;;;8.96;72.72
54876;BME280;40764;48.472;8.166;2023-02-04T12:33:37;99930.00;;;9.23;70.33
54876;BME280;40764;48.472;8.166;2023-02-04T12:39:37;99933.47;;;9.18;69.56
54876;BME280;40764;48.472;8.166;2023-02-04T12:45:38;99925.44;;;9.74;66.84
54876;BME280;40764;48.472;8.166;2023-02-04T12:51:40;99935.38;;;9.80;63.07
54876;BME280;40764;48.472;8.166;2023-02-04T12:57:41;99938.78;;;9.87;63.88
54876;BME280;40764;48.472;8.166;2023-02-04T13:03:41;99934.31;;;9.98;63.67
54876;BME280;40764;48.472;8.166;2023-02-04T13:09:41;99937.03;;;9.98;62.95
54876;BME280;40764;48.472;8.166;2023-02-04T13:15:42;99931.91;;;9.84;62.74
54876;BME280;40764;48.472;8.166;2023-02-04T13:21:43;99938.53;;;9.88;64.78
54876;BME280;40764;48.472;8.166;2023-02-04T13:27:43;99935.13;;;10.15;64.90
54876;BME280;40764;48.472;8.166;2023-02-04T13:33:43;99934.38;;;10.19;64.55
54876;BME280;40764;48.472;8.166;2023-02-04T13:39:44;99937.09;;;10.19;61.92
54876;BME280;40764;48.472;8.166;2023-02-04T13:45:44;99940.97;;;10.40;60.44
54876;BME280;40764;48.472;8.166;2023-02-04T13:51:47;99939.28;;;9.67;63.32
54876;BME280;40764;48.472;8.166;2023-02-04T13:57:48;99943.63;;;9.51;65.41
54876;BME280;40764;48.472;8.166;2023-02-04T14:03:48;99951.03;;;9.68;66.88
54876;BME280;40764;48.472;8.166;2023-02-04T14:09:49;99961.53;;;9.76;70.00
54876;BME280;40764;48.472;8.166;2023-02-04T14:15:49;99952.50;;;9.75;70.34
54876;BME280;40764;48.472;8.166;2023-02-04T14:21:49;99955.81;;;9.77;70.11
54876;BME280;40764;48.472;8.166;2023-02-04T14:27:50;99958.63;;;9.99;69.69
54876;BME280;40764;48.472;8.166;2023-02-04T14:33:50;99974.84;;;9.72;70.05
54876;BME280;40764;48.472;8.166;2023-02-04T14:39:50;99968.84;;;9.87;69.60
54876;BME280;40764;48.472;8.166;2023-02-04T14:45:51;99973.13;;;9.66;70.31
54876;BME280;40764;48.472;8.166;2023-02-04T14:51:52;99980.66;;;9.30;71.48
54876;BME280;40764;48.472;8.166;2023-02-04T14:57:52;99973.00;;;9.16;71.64
54876;BME280;40764;48.472;8.166;2023-02-04T15:03:53;99977.72;;;8.80;72.58
54876;BME280;40764;48.472;8.166;2023-02-04T15:09:53;99980.75;;;8.55;76.59
54876;BME280;40764;48.472;8.166;2023-02-04T15:15:54;99983.94;;;8.17;81.44
54876;BME280;40764;48.472;8.166;2023-02-04T15:21:54;99990.28;;;7.88;84.90
54876;BME280;40764;48.472;8.166;2023-02-04T15:27:54;99985.31;;;7.85;84.69
54876;BME280;40764;48.472;8.166;2023-02-04T15:33:55;99987.78;;;7.74;84.24
54876;BME280;40764;48.472;8.166;2023-02-04T15:39:55;99986.97;;;7.14;87.69
54876;BME280;40764;48.472;8.166;2023-02-04T15:45:55;99999.03;;;6.88;89.91
54876;BME280;40764;48.472;8.166;2023-02-04T15:51:56;100005.53;;;6.69;90.23
54876;BME280;40764;48.472;8.166;2023-02-04T15:57:56;100012.09;;;6.43;91.26
54876;BME280;40764;48.472;8.166;2023-02-04T16:03:57;100011.63;;;6.46;88.88
54876;BME280;40764;48.472;8.166;2023-02-04T16:09:58;100010.56;;;6.04;89.74
54876;BME280;40764;48.472;8.166;2023-02-04T16:15:58;100023.81;;;5.87;90.13
54876;BME280;40764;48.472;8.166;2023-02-04T16:21:58;100029.38;;;5.67;92.03
54876;BME280;40764;48.472;8.166;2023-02-04T16:27:59;100035.34;;;5.51;91.56
54876;BME280;40764;48.472;8.166;2023-02-04T16:33:59;100047.56;;;5.28;91.90
54876;BME280;40764;48.472;8.166;2023-02-04T16:40:00;100062.06;;;5.03;93.08
54876;BME280;40764;48.472;8.166;2023-02-04T16:46:01;100075.44;;;4.91;93.25
54876;BME280;40764;48.472;8.166;2023-02-04T16:52:01;100088.44;;;4.69;93.48
54876;BME280;40764;48.472;8.166;2023-02-04T16:58:04;100075.16;;;4.34;94.78
54876;BME280;40764;48.472;8.166;2023-02-04T17:04:04;100081.59;;;4.27;95.21
54876;BME280;40764;48.472;8.166;2023-02-04T17:10:05;100077.63;;;4.29;95.38
54876;BME280;40764;48.472;8.166;2023-02-04T17:16:05;100089.06;;;3.98;96.38
54876;BME280;40764;48.472;8.166;2023-02-04T17:22:06;100094.84;;;3.62;97.30
54876;BME280;40764;48.472;8.166;2023-02-04T17:28:06;100088.78;;;3.47;97.94
54876;BME280;40764;48.472;8.166;2023-02-04T17:34:07;100092.66;;;3.25;99.21
54876;BME280;40764;48.472;8.166;2023-02-04T17:40:09;100094.66;;;3.09;100.00
54876;BME280;40764;48.472;8.166;2023-02-04T17:46:11;100112.34;;;3.12;99.81
54876;BME280;40764;48.472;8.166;2023-02-04T17:52:12;100116.75;;;3.20;98.40
54876;BME280;40764;48.472;8.166;2023-02-04T17:58:15;100121.41;;;2.98;98.73
54876;BME280;40764;48.472;8.166;2023-02-04T18:04:15;100130.06;;;2.87;99.31
54876;BME280;40764;48.472;8.166;2023-02-04T18:10:29;100119.13;;;2.95;98.81
54876;BME280;40764;48.472;8.166;2023-02-04T18:16:33;100121.81;;;2.95;99.04
54876;BME280;40764;48.472;8.166;2023-02-04T18:22:33;100130.22;;;2.78;100.00
54876;BME280;40764;48.472;8.166;2023-02-04T18:28:33;100133.19;;;2.56;100.00
54876;BME280;40764;48.472;8.166;2023-02-04T18:34:42;100125.19;;;2.69;100.00
54876;BME280;40764;48.472;8.166;2023-02-04T18:40:42;100124.94;;;2.92;100.00
54876;BME280;40764;48.472;8.166;2023-02-04T18:46:45;100128.56;;;2.49;100.00
54876;BME280;40764;48.472;8.166;2023-02-04T18:52:47;100137.31;;;2.52;100.00
54876;BME280;40764;48.472;8.166;2023-02-04T18:58:47;100130.53;;;2.90;100.00
54876;BME280;40764;48.472;8.166;2023-02-04T19:04:48;100136.63;;;2.71;99.99
54876;BME280;40764;48.472;8.166;2023-02-04T19:10:50;100134.72;;;2.37;100.00
54876;BME280;40764;48.472;8.166;2023-02-04T19:16:51;100139.00;;;2.31;100.00
54876;BME280;40764;48.472;8.166;2023-02-04T19:22:53;100145.78;;;2.21;100.00
54876;BME280;40764;48.472;8.166;2023-02-04T19:28:53;100136.47;;;2.23;100.00
54876;BME280;40764;48.472;8.166;2023-02-04T19:35:00;100138.81;;;2.05;100.00
54876;BME280;40764;48.472;8.166;2023-02-04T19:47:25;100132.78;;;2.03;100.00
54876;BME280;40764;48.472;8.166;2023-02-04T19:53:27;100147.19;;;1.95;100.00
54876;BME280;40764;48.472;8.166;2023-02-04T19:59:32;100149.66;;;1.90;100.00
54876;BME280;40764;48.472;8.166;2023-02-04T20:05:35;100157.16;;;1.95;100.00
54876;BME280;40764;48.472;8.166;2023-02-04T20:11:40;100160.50;;;1.97;100.00
54876;BME280;40764;48.472;8.166;2023-02-04T20:17:46;100172.13;;;1.76;100.00
54876;BME280;40764;48.472;8.166;2023-02-04T20:23:47;100168.78;;;1.95;100.00
54876;BME280;40764;48.472;8.166;2023-02-04T20:29:48;100174.22;;;2.02;99.47
54876;BME280;40764;48.472;8.166;2023-02-04T20:41:49;100172.94;;;1.98;100.00
54876;BME280;40764;48.472;8.166;2023-02-04T20:47:52;100175.53;;;2.06;100.00
54876;BME280;40764;48.472;8.166;2023-02-04T20:53:54;100179.38;;;1.97;100.00
54876;BME280;40764;48.472;8.166;2023-02-04T20:59:57;100178.69;;;2.09;100.00
54876;BME280;40764;48.472;8.166;2023-02-04T21:05:59;100185.81;;;2.17;100.00
54876;BME280;40764;48.472;8.166;2023-02-04T21:12:00;100182.53;;;2.22;100.00
54876;BME280;40764;48.472;8.166;2023-02-04T21:18:01;100188.94;;;1.99;100.00
54876;BME280;40764;48.472;8.166;2023-02-04T21:24:01;100206.69;;;2.08;100.00
54876;BME280;40764;48.472;8.166;2023-02-04T21:30:02;100207.47;;;2.24;100.00
54876;BME280;40764;48.472;8.166;2023-02-04T21:36:03;100199.38;;;2.24;100.00
54876;BME280;40764;48.472;8.166;2023-02-04T21:42:03;100206.22;;;2.26;100.00
54876;BME280;40764;48.472;8.166;2023-02-04T21:48:10;100203.63;;;2.33;100.00
54876;BME280;40764;48.472;8.166;2023-02-04T21:54:10;100217.63;;;2.43;100.00
54876;BME280;40764;48.472;8.166;2023-02-04T22:00:12;100210.59;;;2.27;100.00
54876;BME280;40764;48.472;8.166;2023-02-04T22:06:12;100198.66;;;2.15;100.00
54876;BME280;40764;48.472;8.166;2023-02-04T22:12:13;100196.41;;;2.18;100.00
54876;BME280;40764;48.472;8.166;2023-02-04T22:18:13;100191.34;;;2.09;100.00
54876;BME280;40764;48.472;8.166;2023-02-04T22:24:14;100199.63;;;2.29;100.00
54876;BME280;40764;48.472;8.166;2023-02-04T22:30:15;100199.06;;;2.33;100.00
54876;BME280;40764;48.472;8.166;2023-02-04T22:36:16;100192.88;;;2.18;100.00
54876;BME280;40764;48.472;8.166;2023-02-04T22:42:16;100191.16;;;2.32;100.00
54876;BME280;40764;48.472;8.166;2023-02-04T22:48:17;100195.81;;;2.44;100.00
54876;BME280;40764;48.472;8.166;2023-02-04T22:54:17;100203.53;;;2.47;100.00
54876;BME280;40764;48.472;8.166;2023-02-04T23:00:17;100213.44;;;2.40;100.00
54876;BME280;40764;48.472;8.166;2023-02-04T23:06:18;100205.13;;;2.63;100.00
54876;BME280;40764;48.472;8.166;2023-02-04T23:12:18;100206.13;;;2.34;100.00
54876;BME280;40764;48.472;8.166;2023-02-04T23:18:19;100192.44;;;2.36;100.00
54876;BME280;40764;48.472;8.166;2023-02-04T23:24:19;100193.59;;;2.05;100.00
54876;BME280;40764;48.472;8.166;2023-02-04T23:30:20;100199.94;;;2.19;100.00
54876;BME280;40764;48.472;8.166;2023-02-04T23:36:20;100194.81;;;2.03;100.00
54876;BME280;40764;48.472;8.166;2023-02-04T23:42:20;100192.03;;;1.96;100.00
54876;BME280;40764;48.472;8.166;2023-02-04T23:48:22;100193.41;;;2.07;100.00
54876;BME280;40764;48.472;8.166;2023-02-04T23:54:23;100193.78;;;2.04;100.00
